Time;durP1;ratioP1;P1;durP2;ratioP2;P2;SDS_P1;SDS_P2;PMS_P1;PMS_P2;Temp;Humidity;BMP_temperature;BMP_pressure;BME280_temperature;BME280_humidity;BME280_pressure;Samples;Min_cycle;Max_cycle;Signal;HPM_P1;HPM_P2
2022/12/30 00:00:15;;;;;;;16.88;6.00;;;7.30;99.90;;;;;;5001063;28;89123;-33
2022/12/30 00:02:40;;;;;;;16.30;6.25;;;7.30;99.90;;;;;;5000640;28;89243;-32
2022/12/30 00:05:06;;;;;;;17.92;5.53;;;7.30;99.90;;;;;;5000889;28;90451;-34
2022/12/30 00:07:35;;;;;;;12.65;5.18;;;7.30;99.90;;;;;;5000202;28;91369;-32
2022/12/30 00:10:04;;;;;;;19.17;6.95;;;7.30;99.90;;;;;;5000788;28;89816;-32
2022/12/30 00:35:13;;;;;;;18.52;5.40;;;7.30;99.90;;;;;;4987986;28;90333;-32
2022/12/30 00:37:38;;;;;;;15.32;5.32;;;7.30;99.90;;;;;;5001036;28;90308;-32
2022/12/30 00:40:05;;;;;;;11.35;5.85;;;7.20;99.90;;;;;;4999900;28;89406;-32
2022/12/30 00:45:15;;;;;;;25.90;7.35;;;7.10;99.90;;;;;;4999671;28;90754;-33
2022/12/30 00:47:41;;;;;;;20.45;5.82;;;7.20;99.90;;;;;;4999954;28;90263;-32
2022/12/30 00:58:20;;;;;;;21.15;6.13;;;7.00;99.90;;;;;;5000308;28;90840;-32
2022/12/30 01:00:45;;;;;;;17.00;6.03;;;7.10;99.90;;;;;;4999678;28;89439;-35
2022/12/30 01:03:11;;;;;;;21.60;5.88;;;7.10;99.90;;;;;;5000300;28;89041;-33
2022/12/30 01:05:40;;;;;;;21.13;6.28;;;7.00;99.90;;;;;;4999177;28;90019;-32
2022/12/30 01:08:06;;;;;;;20.15;5.32;;;7.00;99.90;;;;;;4999574;28;90174;-31
2022/12/30 01:10:32;;;;;;;11.18;4.80;;;6.90;99.90;;;;;;4999078;28;89699;-32
2022/12/30 01:12:58;;;;;;;15.75;4.65;;;7.00;99.90;;;;;;4999534;28;90476;-33
2022/12/30 01:15:24;;;;;;;17.58;6.35;;;6.90;99.90;;;;;;4999960;28;89268;-35
2022/12/30 01:17:50;;;;;;;13.65;4.97;;;6.90;99.90;;;;;;4999802;28;89962;-33
2022/12/30 01:20:15;;;;;;;15.85;5.32;;;6.90;99.90;;;;;;4998934;28;89646;-33
2022/12/30 01:22:41;;;;;;;16.02;5.25;;;6.90;99.90;;;;;;4999684;28;89765;-33
2022/12/30 01:25:07;;;;;;;16.70;5.25;;;6.80;99.90;;;;;;4999751;28;90184;-32
2022/12/30 01:27:32;;;;;;;15.88;4.90;;;6.80;99.90;;;;;;4999304;28;90234;-34
2022/12/30 01:29:59;;;;;;;15.73;5.80;;;6.80;99.90;;;;;;4999603;28;89539;-33
2022/12/30 01:32:28;;;;;;;15.57;5.32;;;6.80;99.90;;;;;;4998688;28;88812;-32
2022/12/30 01:34:55;;;;;;;16.98;4.88;;;6.80;99.90;;;;;;4998099;28;88438;-33
2022/12/30 01:37:22;;;;;;;25.08;6.07;;;6.80;99.90;;;;;;4999810;28;90556;-32
2022/12/30 01:39:47;;;;;;;12.73;5.43;;;6.80;99.90;;;;;;4999093;28;89608;-32
2022/12/30 01:42:22;;;;;;;15.38;5.13;;;6.80;99.90;;;;;;4998005;28;89827;-33
2022/12/30 01:44:53;;;;;;;12.75;5.68;;;6.70;99.90;;;;;;4999572;28;88672;-34
2022/12/30 01:47:33;;;;;;;12.65;4.40;;;6.70;99.90;;;;;;4980975;28;89887;-32
2022/12/30 01:50:05;;;;;;;21.17;6.13;;;6.60;99.90;;;;;;4999898;28;90265;-31
2022/12/30 01:52:32;;;;;;;19.25;4.97;;;6.60;99.90;;;;;;4984911;28;90052;-33
2022/12/30 01:55:02;;;;;;;17.35;4.95;;;6.60;99.90;;;;;;4999405;28;89049;-35
2022/12/30 01:57:29;;;;;;;13.57;4.68;;;6.60;99.90;;;;;;4998562;28;90418;-35
2022/12/30 01:59:55;;;;;;;18.35;4.95;;;6.50;99.90;;;;;;4999081;28;90295;-32
2022/12/30 02:02:21;;;;;;;20.90;6.38;;;6.50;99.90;;;;;;4999257;28;90364;-31
2022/12/30 02:04:47;;;;;;;16.08;4.40;;;6.50;99.90;;;;;;4999508;28;88003;-33
2022/12/30 02:07:27;;;;;;;25.33;5.50;;;6.40;99.90;;;;;;4998768;28;89899;-33
2022/12/30 02:09:55;;;;;;;18.77;5.53;;;6.40;99.90;;;;;;4997182;28;91302;-32
2022/12/30 02:12:20;;;;;;;13.25;3.95;;;6.40;99.90;;;;;;4997954;28;89446;-33
2022/12/30 02:14:47;;;;;;;16.25;5.53;;;6.40;99.90;;;;;;4999192;28;89059;-32
2022/12/30 02:17:24;;;;;;;21.42;4.57;;;6.40;99.90;;;;;;4999226;28;90373;-37
2022/12/30 02:20:24;;;;;;;13.52;6.00;;;6.30;99.90;;;;;;4998612;28;90160;-33
2022/12/30 02:23:11;;;;;;;13.82;5.78;;;6.30;99.90;;;;;;4998801;28;89633;-31
2022/12/30 02:26:05;;;;;;;15.90;5.43;;;6.30;99.90;;;;;;4985832;28;90145;-32
2022/12/30 02:28:42;;;;;;;12.00;4.82;;;6.30;99.90;;;;;;4997916;28;90544;-33
2022/12/30 02:31:29;;;;;;;18.10;5.90;;;6.20;99.90;;;;;;4998616;28;89597;-32
2022/12/30 02:34:32;;;;;;;15.98;5.63;;;6.20;99.90;;;;;;4984961;28;89005;-34
2022/12/30 02:37:12;;;;;;;20.85;5.97;;;6.20;99.90;;;;;;4998663;28;89483;-33
2022/12/30 02:40:07;;;;;;;16.65;6.15;;;6.10;99.90;;;;;;4998504;28;89313;-33
2022/12/30 02:45:54;;;;;;;9.40;5.15;;;6.10;99.90;;;;;;4998381;28;90190;-33
2022/12/30 02:48:30;;;;;;;14.32;6.13;;;6.10;99.90;;;;;;4998733;28;88516;-32
2022/12/30 02:53:44;;;;;;;19.45;5.88;;;6.10;99.90;;;;;;4998873;28;90866;-31
2022/12/30 02:56:10;;;;;;;12.82;5.55;;;6.10;99.90;;;;;;5001848;28;89827;-31
2022/12/30 02:58:37;;;;;;;15.07;5.85;;;6.00;99.90;;;;;;5001440;28;88140;-31
2022/12/30 03:04:06;;;;;;;19.90;6.43;;;5.90;99.90;;;;;;4928608;28;90513;-32
2022/12/30 03:06:56;;;;;;;15.65;6.72;;;5.90;99.90;;;;;;5001423;28;89409;-32
2022/12/30 03:13:03;;;;;;;14.57;6.03;;;5.90;99.90;;;;;;5001189;28;90367;-34
2022/12/30 03:15:44;;;;;;;18.33;6.93;;;5.80;99.90;;;;;;5001715;28;90788;-32
2022/12/30 03:18:11;;;;;;;14.77;5.28;;;5.80;99.90;;;;;;5002014;28;89624;-31
2022/12/30 03:20:39;;;;;;;17.35;6.65;;;5.70;99.90;;;;;;5000533;28;89046;-32
2022/12/30 03:28:40;;;;;;;20.90;6.90;;;5.60;99.90;;;;;;4988818;28;88797;-31
2022/12/30 03:31:10;;;;;;;18.27;8.35;;;5.70;99.90;;;;;;5001736;28;87644;-33
2022/12/30 03:33:35;;;;;;;14.93;6.70;;;5.60;99.90;;;;;;5000374;28;89279;-33
2022/12/30 03:36:33;;;;;;;13.95;6.38;;;5.60;99.90;;;;;;5001274;28;89777;-32
2022/12/30 03:39:04;;;;;;;22.40;8.30;;;5.60;99.90;;;;;;4989530;28;89595;-32
2022/12/30 03:41:31;;;;;;;14.50;6.45;;;5.60;99.90;;;;;;5001177;28;89489;-32
2022/12/30 03:43:56;;;;;;;13.93;5.95;;;5.50;99.90;;;;;;5000829;28;90143;-31
2022/12/30 03:46:33;;;;;;;20.48;6.13;;;5.50;99.90;;;;;;5000490;28;90656;-31
2022/12/30 03:48:59;;;;;;;24.55;6.60;;;5.50;99.90;;;;;;5001221;28;90418;-34
2022/12/30 03:51:25;;;;;;;12.57;5.13;;;5.50;99.90;;;;;;5000890;28;88956;-32
2022/12/30 03:53:51;;;;;;;24.10;5.95;;;5.50;99.90;;;;;;5001483;28;90197;-33
2022/12/30 03:56:17;;;;;;;24.02;6.93;;;5.50;99.90;;;;;;5000385;28;89750;-31
2022/12/30 03:58:42;;;;;;;18.65;6.45;;;5.50;99.90;;;;;;5000505;28;89823;-35
2022/12/30 04:01:08;;;;;;;17.38;5.78;;;5.50;99.90;;;;;;5000732;28;88979;-32
2022/12/30 04:03:34;;;;;;;17.20;6.05;;;5.50;99.90;;;;;;5000351;28;90424;-34
2022/12/30 04:05:59;;;;;;;13.90;5.28;;;5.50;99.90;;;;;;5000572;28;88300;-32
2022/12/30 04:08:25;;;;;;;12.85;5.72;;;5.50;99.90;;;;;;5000040;28;89612;-32
2022/12/30 04:10:51;;;;;;;14.30;4.53;;;5.50;99.90;;;;;;5000381;28;90452;-31
2022/12/30 04:13:17;;;;;;;11.40;6.00;;;5.50;99.90;;;;;;5000412;28;91154;-33
2022/12/30 04:15:47;;;;;;;16.90;5.55;;;5.50;99.90;;;;;;5000825;28;89621;-32
2022/12/30 04:18:13;;;;;;;15.93;4.68;;;5.50;99.90;;;;;;5000726;28;89234;-32
2022/12/30 04:20:39;;;;;;;12.43;5.43;;;5.50;99.90;;;;;;5000650;28;88663;-35
2022/12/30 04:23:04;;;;;;;9.07;4.68;;;5.40;99.90;;;;;;5000175;28;88164;-32
2022/12/30 04:25:30;;;;;;;10.15;5.20;;;5.40;99.90;;;;;;5000632;28;90534;-31
2022/12/30 04:27:56;;;;;;;17.38;5.75;;;5.40;99.90;;;;;;4982609;28;89069;-31
2022/12/30 04:30:21;;;;;;;10.95;4.97;;;5.30;99.90;;;;;;5001073;28;90174;-32
2022/12/30 04:32:47;;;;;;;20.70;5.82;;;5.20;99.90;;;;;;5000453;28;90561;-33
2022/12/30 04:35:12;;;;;;;14.25;5.65;;;5.30;99.90;;;;;;4999087;28;90618;-31
2022/12/30 04:37:39;;;;;;;17.30;5.13;;;5.20;99.90;;;;;;5000493;28;89972;-31
2022/12/30 04:40:05;;;;;;;13.25;5.38;;;5.20;99.90;;;;;;5000377;28;88381;-32
2022/12/30 04:42:30;;;;;;;17.55;5.50;;;5.20;99.90;;;;;;5000204;28;90404;-32
2022/12/30 04:44:56;;;;;;;20.60;5.22;;;5.20;99.90;;;;;;5000519;28;89493;-32
2022/12/30 04:47:22;;;;;;;14.95;4.65;;;5.10;99.90;;;;;;4999323;28;89407;-32
2022/12/30 04:49:47;;;;;;;12.13;5.28;;;5.10;99.90;;;;;;4999855;28;88264;-33
2022/12/30 04:52:13;;;;;;;18.08;6.07;;;5.10;99.90;;;;;;5000405;28;90385;-33
2022/12/30 04:54:39;;;;;;;12.88;5.00;;;5.00;99.90;;;;;;5000830;28;90436;-32
2022/12/30 04:57:04;;;;;;;11.77;5.00;;;5.00;99.90;;;;;;4999434;28;90361;-32
2022/12/30 04:59:30;;;;;;;9.23;4.78;;;5.00;99.90;;;;;;4999424;28;89909;-34
2022/12/30 05:01:56;;;;;;;12.95;4.85;;;5.00;99.90;;;;;;5000030;28;90786;-32
2022/12/30 05:04:21;;;;;;;12.15;5.40;;;5.00;99.90;;;;;;5000006;28;89406;-32
2022/12/30 05:06:47;;;;;;;13.90;5.00;;;5.00;99.90;;;;;;4999751;28;89572;-34
2022/12/30 05:09:12;;;;;;;12.45;4.78;;;5.00;99.90;;;;;;4999694;28;89085;-31
2022/12/30 05:11:38;;;;;;;9.07;4.70;;;5.00;99.90;;;;;;4999115;28;89556;-34
2022/12/30 05:14:04;;;;;;;9.70;4.70;;;5.10;99.90;;;;;;4999578;28;90036;-33
2022/12/30 05:16:30;;;;;;;16.27;5.57;;;5.20;99.90;;;;;;4999541;28;89687;-34
2022/12/30 05:18:55;;;;;;;12.48;5.28;;;5.30;99.90;;;;;;4982308;28;89249;-32
2022/12/30 05:21:21;;;;;;;17.38;6.32;;;5.20;99.90;;;;;;4999679;28;90226;-31
2022/12/30 05:26:30;;;;;;;13.27;4.97;;;5.20;99.90;;;;;;4998994;28;90698;-31
2022/12/30 05:28:56;;;;;;;21.30;5.68;;;5.10;99.90;;;;;;5000020;28;87942;-35
2022/12/30 05:31:22;;;;;;;13.10;5.00;;;5.10;99.90;;;;;;4999486;28;90828;-33
2022/12/30 05:33:47;;;;;;;9.63;4.95;;;5.20;99.90;;;;;;4998614;28;89529;-34
2022/12/30 05:36:14;;;;;;;12.32;4.72;;;5.20;99.90;;;;;;4999669;28;90022;-33
2022/12/30 05:38:40;;;;;;;20.42;6.75;;;5.20;99.90;;;;;;4998734;28;88187;-32
2022/12/30 05:41:06;;;;;;;14.77;5.68;;;5.10;99.90;;;;;;4999823;28;90218;-34
2022/12/30 05:43:32;;;;;;;8.80;4.30;;;5.20;99.90;;;;;;4999449;28;91978;-32
2022/12/30 05:45:57;;;;;;;16.35;5.57;;;5.20;99.90;;;;;;4998847;28;89342;-31
2022/12/30 05:48:23;;;;;;;13.63;4.53;;;5.10;99.90;;;;;;4998949;28;88588;-34
2022/12/30 05:50:50;;;;;;;18.08;6.30;;;5.10;99.90;;;;;;4999368;28;90901;-31
2022/12/30 05:53:16;;;;;;;12.30;5.28;;;5.20;99.90;;;;;;4999204;28;90147;-31
2022/12/30 05:55:42;;;;;;;15.73;5.68;;;5.20;99.90;;;;;;4999732;28;90061;-32
2022/12/30 05:58:08;;;;;;;14.18;5.68;;;5.20;99.90;;;;;;4998634;28;88092;-32
2022/12/30 06:00:34;;;;;;;17.58;5.30;;;5.20;99.90;;;;;;4998870;28;90223;-30
2022/12/30 06:03:00;;;;;;;15.30;5.97;;;5.10;99.90;;;;;;4998470;28;89569;-32
2022/12/30 06:05:25;;;;;;;13.50;5.90;;;5.10;99.90;;;;;;4998657;28;89154;-32
2022/12/30 06:07:51;;;;;;;11.25;5.60;;;5.10;99.90;;;;;;4999281;28;89381;-34
2022/12/30 06:10:16;;;;;;;19.17;6.40;;;5.10;99.90;;;;;;4998485;28;89586;-31
2022/12/30 06:12:42;;;;;;;20.13;6.63;;;5.10;99.90;;;;;;4998130;28;91453;-32
2022/12/30 06:15:08;;;;;;;15.13;5.05;;;5.10;99.90;;;;;;4980443;28;89987;-31
2022/12/30 06:17:34;;;;;;;14.30;5.95;;;5.00;99.90;;;;;;4998479;28;87913;-33
2022/12/30 06:19:59;;;;;;;15.30;5.82;;;5.00;99.90;;;;;;4985080;28;90400;-32
2022/12/30 06:22:25;;;;;;;16.02;5.35;;;5.00;99.90;;;;;;4998197;28;89943;-32
2022/12/30 06:24:51;;;;;;;12.90;5.40;;;5.00;99.90;;;;;;4998808;28;90085;-31
2022/12/30 06:27:16;;;;;;;16.55;4.60;;;5.00;99.90;;;;;;4998209;28;90057;-32
2022/12/30 06:29:42;;;;;;;17.17;6.00;;;5.00;99.90;;;;;;5001571;28;89872;-32
2022/12/30 06:32:07;;;;;;;15.18;5.20;;;5.00;99.90;;;;;;5002086;28;89908;-33
2022/12/30 06:34:33;;;;;;;14.77;5.65;;;5.00;99.90;;;;;;4992123;28;89160;-33
2022/12/30 06:36:59;;;;;;;17.17;5.25;;;4.90;99.90;;;;;;5001671;28;89383;-34
2022/12/30 06:39:24;;;;;;;10.90;5.05;;;5.00;99.90;;;;;;5001276;28;90366;-32
2022/12/30 06:41:50;;;;;;;20.13;5.13;;;4.90;99.90;;;;;;5002324;28;89170;-34
2022/12/30 06:44:15;;;;;;;21.60;6.60;;;4.90;99.90;;;;;;5002146;28;89435;-34
2022/12/30 06:46:41;;;;;;;12.75;5.07;;;5.00;99.90;;;;;;5001984;28;88494;-33
2022/12/30 06:49:08;;;;;;;8.52;4.45;;;5.00;99.90;;;;;;4999973;28;90444;-34
2022/12/30 06:51:34;;;;;;;18.80;5.93;;;5.10;99.90;;;;;;5001436;28;89864;-31
2022/12/30 06:53:59;;;;;;;12.13;4.22;;;5.10;99.90;;;;;;5002283;28;89786;-33
2022/12/30 06:56:25;;;;;;;18.63;4.60;;;5.20;99.90;;;;;;5001354;28;89093;-33
2022/12/30 06:58:50;;;;;;;14.52;4.68;;;5.10;99.90;;;;;;5001699;28;90085;-32
2022/12/30 07:01:16;;;;;;;10.48;4.07;;;5.10;99.90;;;;;;5001015;28;90772;-32
2022/12/30 07:03:42;;;;;;;13.45;4.82;;;5.20;99.90;;;;;;5001475;28;90552;-33
2022/12/30 07:06:07;;;;;;;17.40;5.60;;;5.10;99.90;;;;;;5002013;28;89201;-32
2022/12/30 07:08:33;;;;;;;11.82;4.63;;;5.10;99.90;;;;;;5001083;28;89992;-31
2022/12/30 07:10:58;;;;;;;11.50;4.85;;;5.20;99.90;;;;;;5001712;28;89514;-32
2022/12/30 07:13:26;;;;;;;14.48;4.80;;;5.10;99.90;;;;;;5001141;28;89736;-34
2022/12/30 07:15:52;;;;;;;12.40;5.35;;;5.10;99.90;;;;;;5001572;28;87978;-34
2022/12/30 07:18:17;;;;;;;10.75;4.75;;;5.00;99.90;;;;;;5001650;28;90533;-31
2022/12/30 07:20:43;;;;;;;21.95;5.55;;;5.00;99.90;;;;;;5001459;28;89466;-33
2022/12/30 07:23:09;;;;;;;12.77;5.03;;;5.00;99.90;;;;;;5001929;28;89181;-34
2022/12/30 07:25:35;;;;;;;10.23;4.75;;;5.00;99.90;;;;;;5001014;28;88770;-33
2022/12/30 07:28:03;;;;;;;14.85;5.47;;;5.00;99.90;;;;;;5001012;28;90506;-33
2022/12/30 07:30:30;;;;;;;13.07;4.63;;;5.00;99.90;;;;;;5001962;28;89080;-32
2022/12/30 07:32:56;;;;;;;13.80;4.28;;;5.00;99.90;;;;;;5001562;28;89455;-31
2022/12/30 07:35:22;;;;;;;19.17;5.68;;;5.10;99.90;;;;;;5000303;28;89370;-31
2022/12/30 07:37:49;;;;;;;17.90;5.10;;;5.00;99.90;;;;;;5001718;28;90747;-32
2022/12/30 07:40:15;;;;;;;11.40;5.20;;;5.10;99.90;;;;;;5000188;28;89937;-33
2022/12/30 07:42:41;;;;;;;15.55;4.45;;;5.10;99.90;;;;;;5000342;28;87935;-34
2022/12/30 07:45:07;;;;;;;14.98;5.70;;;5.10;99.90;;;;;;5002313;28;87856;-31
2022/12/30 07:47:33;;;;;;;11.18;4.63;;;5.10;99.90;;;;;;5000666;28;91465;-32
2022/12/30 07:50:00;;;;;;;14.10;4.55;;;5.00;99.90;;;;;;5001179;28;89989;-32
2022/12/30 07:52:26;;;;;;;16.08;5.45;;;5.10;99.90;;;;;;5001475;28;89883;-31
2022/12/30 07:54:51;;;;;;;18.08;6.28;;;5.10;99.90;;;;;;5001882;28;89324;-34
2022/12/30 07:57:17;;;;;;;9.35;4.07;;;5.10;99.90;;;;;;5001505;28;90431;-31
2022/12/30 07:59:42;;;;;;;11.32;4.72;;;5.00;99.90;;;;;;5006020;28;90464;-31
2022/12/30 08:02:11;;;;;;;10.23;4.50;;;5.10;99.90;;;;;;5014616;28;88214;-31
2022/12/30 08:04:36;;;;;;;13.55;5.15;;;5.20;99.90;;;;;;5014429;28;87664;-31
2022/12/30 08:07:02;;;;;;;31.35;6.38;;;5.20;99.90;;;;;;5012618;28;90564;-31
2022/12/30 08:09:28;;;;;;;10.07;4.40;;;5.20;99.90;;;;;;4992849;28;89406;-31
2022/12/30 08:11:54;;;;;;;17.52;4.82;;;5.20;99.90;;;;;;5011711;28;89078;-31
2022/12/30 08:14:19;;;;;;;11.18;5.30;;;5.30;99.90;;;;;;5010896;28;88067;-33
2022/12/30 08:16:45;;;;;;;13.40;4.57;;;5.30;99.90;;;;;;5010204;28;90314;-32
2022/12/30 08:19:10;;;;;;;12.65;4.47;;;5.30;99.90;;;;;;4993050;28;89379;-31
2022/12/30 08:21:36;;;;;;;15.27;5.15;;;5.30;99.90;;;;;;4994151;28;88289;-34
2022/12/30 08:24:02;;;;;;;14.82;6.00;;;5.40;99.90;;;;;;5008953;28;88668;-30
2022/12/30 08:26:27;;;;;;;7.22;4.43;;;5.50;99.90;;;;;;5006110;28;90034;-33
2022/12/30 08:28:53;;;;;;;18.55;4.85;;;5.40;99.90;;;;;;4999737;28;89791;-32
2022/12/30 08:31:24;;;;;;;5.15;4.03;;;5.40;99.90;;;;;;5000159;28;88612;-32
2022/12/30 08:33:51;;;;;;;6.90;4.55;;;5.40;99.90;;;;;;4999216;28;89484;-32
2022/12/30 08:36:20;;;;;;;14.25;4.43;;;5.40;99.90;;;;;;5000330;28;89946;-34
2022/12/30 08:38:48;;;;;;;9.10;4.07;;;5.50;99.90;;;;;;4999794;28;89707;-32
2022/12/30 08:41:14;;;;;;;14.43;4.68;;;5.60;99.90;;;;;;5001019;28;89959;-32
2022/12/30 08:43:40;;;;;;;10.63;5.55;;;5.60;99.90;;;;;;5000978;28;88304;-33
2022/12/30 08:46:06;;;;;;;14.55;5.43;;;5.60;99.90;;;;;;5000108;28;90158;-34
2022/12/30 08:48:33;;;;;;;14.65;4.85;;;5.60;99.90;;;;;;4999235;28;90667;-33
2022/12/30 08:50:59;;;;;;;12.73;5.35;;;5.70;99.90;;;;;;4999438;28;89733;-31
2022/12/30 08:53:25;;;;;;;14.45;4.60;;;5.70;99.90;;;;;;5000126;28;89807;-34
2022/12/30 08:56:13;;;;;;;7.78;3.35;;;5.60;99.90;;;;;;4999181;28;90204;-34
2022/12/30 08:58:38;;;;;;;9.50;4.55;;;5.70;99.90;;;;;;4999206;28;90683;-31
2022/12/30 09:01:25;;;;;;;12.10;4.15;;;5.70;99.90;;;;;;5000447;28;89725;-31
2022/12/30 09:03:51;;;;;;;7.03;3.88;;;5.80;99.90;;;;;;5002781;28;89334;-31
2022/12/30 09:06:19;;;;;;;15.23;4.25;;;5.80;99.90;;;;;;5011585;28;91267;-32
2022/12/30 09:08:45;;;;;;;5.83;3.73;;;5.80;99.90;;;;;;5010194;28;89663;-33
2022/12/30 09:11:14;;;;;;;12.60;4.72;;;5.90;99.90;;;;;;5001011;28;89834;-33
2022/12/30 09:13:41;;;;;;;13.40;5.47;;;6.00;99.90;;;;;;5012292;28;88681;-31
2022/12/30 09:16:10;;;;;;;10.65;4.20;;;6.00;99.90;;;;;;5012496;28;90361;-32
2022/12/30 09:18:36;;;;;;;17.42;3.97;;;6.00;99.90;;;;;;5012102;28;89692;-33
2022/12/30 09:21:03;;;;;;;10.77;4.47;;;6.10;99.90;;;;;;5012950;28;89412;-34
2022/12/30 09:23:28;;;;;;;12.15;4.53;;;6.20;99.90;;;;;;5013202;28;87684;-35
2022/12/30 09:25:54;;;;;;;10.13;4.10;;;6.20;99.90;;;;;;5013228;28;89965;-33
2022/12/30 09:28:20;;;;;;;5.65;3.63;;;6.20;99.90;;;;;;5011736;28;90435;-33
2022/12/30 09:30:45;;;;;;;7.90;3.60;;;6.30;99.90;;;;;;5012912;28;91357;-34
2022/12/30 09:35:46;;;;;;;15.13;3.47;;;6.30;99.90;;;;;;4990902;28;88942;-31
2022/12/30 09:38:12;;;;;;;8.48;4.07;;;6.40;99.90;;;;;;4992217;28;89511;-31
2022/12/30 09:41:05;;;;;;;14.90;4.60;;;6.50;99.90;;;;;;4991567;28;89387;-31
2022/12/30 09:44:10;;;;;;;10.80;3.47;;;6.50;99.90;;;;;;4992765;28;88961;-33
2022/12/30 09:46:45;;;;;;;8.52;3.75;;;6.50;99.90;;;;;;4992572;28;89863;-33
2022/12/30 09:49:25;;;;;;;9.55;3.90;;;6.50;99.90;;;;;;4992251;28;89383;-30
2022/12/30 09:51:58;;;;;;;9.52;3.72;;;6.60;99.90;;;;;;4992560;28;89499;-34
2022/12/30 09:54:27;;;;;;;7.78;4.22;;;6.70;99.90;;;;;;4991333;28;89128;-32
2022/12/30 09:56:57;;;;;;;;;;;6.70;99.90;;;;;;4992504;28;90533;-31
2022/12/30 09:59:32;;;;;;;7.25;3.72;;;6.70;99.90;;;;;;4993861;28;87945;-31
2022/12/30 10:02:30;;;;;;;6.45;3.72;;;6.70;99.90;;;;;;4992601;28;89015;-31
2022/12/30 10:04:58;;;;;;;6.72;3.25;;;6.80;99.90;;;;;;4992525;28;87455;-32
2022/12/30 10:07:34;;;;;;;6.50;3.53;;;6.80;99.90;;;;;;4991643;28;90312;-33
2022/12/30 10:10:14;;;;;;;10.00;4.13;;;6.80;99.90;;;;;;4991954;28;89721;-33
2022/12/30 10:13:06;;;;;;;10.52;4.45;;;6.90;99.90;;;;;;4992636;28;89704;-31
2022/12/30 10:15:51;;;;;;;11.30;4.35;;;6.90;99.90;;;;;;4985099;28;87901;-33
2022/12/30 10:18:42;;;;;;;9.07;4.07;;;7.00;99.90;;;;;;4991597;28;88724;-30
2022/12/30 10:21:16;;;;;;;9.18;4.00;;;7.00;99.90;;;;;;4992071;28;90548;-32
2022/12/30 10:24:00;;;;;;;8.98;3.25;;;7.00;99.90;;;;;;4991013;28;88977;-31
2022/12/30 10:26:47;;;;;;;6.32;3.35;;;7.00;99.90;;;;;;4992754;28;87773;-32
2022/12/30 10:29:19;;;;;;;9.45;4.10;;;7.10;99.90;;;;;;4991562;28;90266;-31
2022/12/30 10:31:49;;;;;;;5.40;3.10;;;7.20;99.90;;;;;;5001232;28;89629;-30
2022/12/30 10:34:21;;;;;;;14.93;4.82;;;7.30;99.90;;;;;;5008305;28;89216;-32
2022/12/30 10:37:03;;;;;;;9.60;3.72;;;7.30;99.90;;;;;;4993818;28;88484;-34
2022/12/30 10:39:32;;;;;;;12.20;3.97;;;7.40;99.90;;;;;;4991236;28;89824;-32
2022/12/30 10:42:04;;;;;;;11.15;3.35;;;7.40;99.90;;;;;;4991761;28;90211;-32
2022/12/30 10:44:45;;;;;;;7.82;4.10;;;7.40;99.90;;;;;;4992562;28;89590;-32
2022/12/30 10:47:37;;;;;;;12.02;3.95;;;7.40;99.90;;;;;;5008123;28;87986;-32
2022/12/30 10:50:23;;;;;;;11.27;4.63;;;7.50;99.90;;;;;;4994371;28;90372;-31
2022/12/30 10:52:50;;;;;;;8.15;3.00;;;7.60;99.90;;;;;;4990907;28;90011;-31
2022/12/30 10:55:22;;;;;;;10.15;3.70;;;7.70;99.90;;;;;;5008304;28;88563;-32
2022/12/30 10:57:55;;;;;;;5.65;3.60;;;7.70;99.90;;;;;;5010217;28;87726;-32
2022/12/30 11:00:21;;;;;;;15.02;3.38;;;7.70;99.90;;;;;;5007722;28;90260;-32
2022/12/30 11:02:57;;;;;;;10.30;3.47;;;7.80;99.90;;;;;;4994683;28;89753;-30
2022/12/30 11:05:41;;;;;;;8.25;3.95;;;7.80;99.90;;;;;;4991400;28;88655;-33
2022/12/30 11:08:21;;;;;;;13.93;3.20;;;7.80;99.90;;;;;;4990920;28;87634;-32
2022/12/30 11:11:03;;;;;;;8.43;5.35;;;7.80;99.90;;;;;;4993548;28;90262;-32
2022/12/30 11:16:15;;;;;;;6.88;3.58;;;7.80;99.90;;;;;;4983790;28;90590;-32
2022/12/30 11:18:44;;;;;;;7.13;3.00;;;7.90;99.90;;;;;;4994914;28;88094;-32
2022/12/30 11:21:10;;;;;;;7.40;3.30;;;7.90;99.90;;;;;;4995286;28;88897;-32
2022/12/30 11:23:40;;;;;;;8.95;2.45;;;7.90;99.90;;;;;;4994772;28;89773;-32
2022/12/30 11:26:09;;;;;;;4.75;2.65;;;7.90;99.90;;;;;;4994464;28;89124;-32
2022/12/30 11:28:45;;;;;;;6.05;3.08;;;8.00;99.90;;;;;;4994753;28;88593;-31
2022/12/30 11:31:12;;;;;;;6.50;2.90;;;8.00;99.90;;;;;;4982161;28;90184;-33
2022/12/30 11:33:48;;;;;;;2.87;2.27;;;8.00;99.90;;;;;;4981465;28;90061;-32
2022/12/30 11:36:14;;;;;;;4.72;2.35;;;8.20;99.90;;;;;;4982677;28;90052;-32
2022/12/30 11:38:50;;;;;;;6.28;3.05;;;8.10;99.90;;;;;;4982484;28;89958;-32
2022/12/30 11:41:16;;;;;;;7.82;2.83;;;8.20;99.90;;;;;;4982229;28;89998;-33
2022/12/30 11:43:43;;;;;;;5.70;3.10;;;8.30;99.90;;;;;;4964157;28;91773;-31
2022/12/30 11:46:11;;;;;;;3.35;2.10;;;8.40;99.90;;;;;;4982084;28;90403;-33
2022/12/30 11:48:53;;;;;;;9.50;3.25;;;8.30;99.90;;;;;;4981541;28;88762;-33
2022/12/30 11:51:26;;;;;;;7.15;2.95;;;8.30;99.90;;;;;;4982371;28;90050;-33
2022/12/30 11:54:05;;;;;;;8.18;2.95;;;8.40;99.90;;;;;;4981263;28;90248;-34
2022/12/30 11:56:30;;;;;;;6.30;2.95;;;8.40;99.90;;;;;;4991324;28;89702;-31
2022/12/30 11:59:05;;;;;;;4.72;2.53;;;8.50;99.90;;;;;;4994682;28;88537;-31
2022/12/30 12:01:44;;;;;;;7.80;3.25;;;8.50;99.90;;;;;;4994343;28;90263;-32
2022/12/30 12:04:37;;;;;;;6.05;2.78;;;8.50;99.90;;;;;;4994191;28;91044;-32
2022/12/30 12:07:05;;;;;;;4.63;2.97;;;8.60;99.90;;;;;;4994600;28;89895;-32
2022/12/30 12:09:43;;;;;;;6.72;2.05;;;8.50;99.90;;;;;;4976288;28;88777;-36
2022/12/30 12:12:16;;;;;;;6.50;3.33;;;8.50;99.90;;;;;;4993844;28;90453;-33
2022/12/30 12:15:02;;;;;;;2.08;1.88;;;8.60;99.90;;;;;;4988558;28;90743;-32
2022/12/30 12:17:50;;;;;;;10.80;2.53;;;8.60;99.90;;;;;;4990588;28;89636;-33
2022/12/30 12:21:05;;;;;;;5.88;3.00;;;8.60;99.90;;;;;;4990678;28;88506;-31
2022/12/30 12:23:51;;;;;;;7.13;2.30;;;8.60;99.90;;;;;;4934474;28;89024;-33
2022/12/30 12:26:23;;;;;;;3.40;2.05;;;8.70;99.90;;;;;;4984884;28;89160;-34
2022/12/30 12:28:52;;;;;;;4.60;2.72;;;8.80;99.90;;;;;;4989801;28;89389;-31
2022/12/30 12:31:48;;;;;;;8.95;3.17;;;8.80;99.90;;;;;;4987731;28;89262;-33
2022/12/30 12:34:19;;;;;;;8.80;2.67;;;8.70;99.90;;;;;;4985422;28;90219;-34
2022/12/30 12:37:11;;;;;;;3.22;2.13;;;8.70;99.90;;;;;;4981241;28;90543;-33
2022/12/30 12:39:55;;;;;;;6.38;2.45;;;8.70;99.90;;;;;;4985927;28;89786;-31
2022/12/30 12:42:27;;;;;;;3.63;2.22;;;8.80;99.90;;;;;;4974766;28;88326;-34
2022/12/30 12:45:18;;;;;;;6.13;2.75;;;8.80;99.90;;;;;;4983639;28;89107;-33
2022/12/30 12:48:04;;;;;;;6.70;1.95;;;8.80;99.90;;;;;;4986381;28;87881;-32
2022/12/30 12:50:45;;;;;;;3.20;2.47;;;8.70;99.90;;;;;;4984528;28;89693;-32
2022/12/30 12:53:16;;;;;;;4.43;1.45;;;8.80;99.90;;;;;;4959279;28;88432;-34
2022/12/30 12:56:08;;;;;;;3.38;2.28;;;8.80;99.90;;;;;;4989360;28;89921;-31
2022/12/30 12:58:42;;;;;;;5.88;1.67;;;8.80;99.90;;;;;;4992139;28;88974;-32
2022/12/30 13:01:13;;;;;;;4.80;2.33;;;8.80;99.90;;;;;;4993410;28;90405;-33
2022/12/30 13:04:06;;;;;;;3.28;1.60;;;8.80;99.90;;;;;;4993049;28;87596;-32
2022/12/30 13:07:04;;;;;;;3.28;1.70;;;8.80;99.90;;;;;;4990737;28;90335;-33
2022/12/30 13:10:09;;;;;;;9.25;2.40;;;9.00;99.90;;;;;;4990612;28;89955;-32
2022/12/30 13:12:42;;;;;;;3.63;2.05;;;9.00;99.90;;;;;;4989250;28;89524;-33
2022/12/30 13:15:21;;;;;;;2.33;1.85;;;9.00;99.90;;;;;;4991498;28;87784;-31
2022/12/30 13:17:50;;;;;;;3.10;1.90;;;9.00;99.90;;;;;;4988396;28;91364;-32
2022/12/30 13:20:20;;;;;;;5.85;1.80;;;9.00;99.90;;;;;;4979474;28;89871;-33
2022/12/30 13:22:47;;;;;;;4.90;1.88;;;9.00;99.90;;;;;;4994712;28;89624;-34
2022/12/30 13:25:39;;;;;;;2.35;1.48;;;9.10;99.90;;;;;;4979965;28;89814;-36
2022/12/30 13:28:11;;;;;;;3.38;1.67;;;9.20;99.90;;;;;;4972824;28;90454;-36
2022/12/30 13:31:04;;;;;;;4.70;2.00;;;9.20;99.90;;;;;;4987643;28;90660;-35
2022/12/30 13:33:47;;;;;;;5.50;2.30;;;9.10;99.90;;;;;;4955600;28;88955;-31
2022/12/30 13:36:25;;;;;;;4.38;2.75;;;9.20;99.90;;;;;;4986371;28;88418;-32
2022/12/30 13:38:59;;;;;;;3.03;2.55;;;9.20;99.90;;;;;;4986348;28;90015;-32
2022/12/30 13:41:38;;;;;;;7.65;2.78;;;9.10;99.90;;;;;;4986266;28;89234;-33
2022/12/30 13:44:10;;;;;;;7.57;2.55;;;9.10;99.90;;;;;;4977542;28;89832;-33
2022/12/30 13:46:35;;;;;;;7.93;3.13;;;9.10;99.90;;;;;;4976674;28;89501;-34
2022/12/30 13:49:28;;;;;;;4.82;2.40;;;9.20;99.90;;;;;;4977424;28;89992;-32
2022/12/30 13:51:57;;;;;;;5.03;2.00;;;9.20;99.90;;;;;;4976729;28;90247;-34
2022/12/30 13:54:24;;;;;;;3.75;2.28;;;9.20;99.90;;;;;;4976885;28;90478;-36
2022/12/30 13:56:51;;;;;;;3.20;1.83;;;9.20;99.90;;;;;;4977156;28;88674;-33
2022/12/30 13:59:24;;;;;;;2.80;2.00;;;9.20;99.90;;;;;;4978938;28;89748;-34
2022/12/30 14:02:10;;;;;;;9.50;2.83;;;9.10;99.90;;;;;;4985637;28;90080;-34
2022/12/30 14:04:56;;;;;;;4.63;2.40;;;9.10;99.90;;;;;;4988321;28;89064;-31
2022/12/30 14:07:37;;;;;;;4.97;2.88;;;9.10;99.90;;;;;;4990313;28;88173;-31
2022/12/30 14:10:16;;;;;;;4.40;1.75;;;9.10;99.90;;;;;;4986338;28;90112;-36